createdAt,value
2022-09-11T00:01:18.712Z,19.18
2022-09-11T00:03:51.178Z,19.25
2022-09-11T00:06:29.254Z,19.07
2022-09-11T00:09:03.459Z,19.13
2022-09-11T00:11:42.992Z,19.30
2022-09-11T00:14:14.369Z,19.61
2022-09-11T00:16:46.677Z,19.69
2022-09-11T00:19:23.260Z,19.33
2022-09-11T00:21:52.142Z,19.19
2022-09-11T00:24:22.513Z,18.73
2022-09-11T00:26:51.776Z,18.57
2022-09-11T00:29:22.373Z,18.73
2022-09-11T00:31:51.186Z,19.07
2022-09-11T00:34:28.200Z,18.74
2022-09-11T00:36:58.570Z,18.44
2022-09-11T00:39:28.610Z,18.72
2022-09-11T00:41:57.245Z,18.27
2022-09-11T00:44:28.958Z,18.66
2022-09-11T00:47:03.914Z,18.60
2022-09-11T00:49:45.965Z,19.03
2022-09-11T00:52:26.946Z,19.28
2022-09-11T00:55:10.120Z,18.96
2022-09-11T00:58:13.882Z,18.41
2022-09-11T01:00:46.692Z,18.43
2022-09-11T01:03:20.952Z,18.01
2022-09-11T01:05:52.974Z,18.15
2022-09-11T01:08:28.401Z,18.29
2022-09-11T01:11:00.469Z,18.45
2022-09-11T01:13:41.404Z,18.40
2022-09-11T01:16:56.098Z,18.26
2022-09-11T01:20:06.144Z,18.65
2022-09-11T01:23:29.115Z,18.58
2022-09-11T01:26:19.369Z,18.19
2022-09-11T01:29:32.268Z,18.18
2022-09-11T01:32:22.663Z,18.41
2022-09-11T01:35:10.529Z,18.81
2022-09-11T01:37:51.745Z,18.51
2022-09-11T01:40:29.235Z,18.57
2022-09-11T01:43:17.076Z,18.25
2022-09-11T01:45:49.528Z,18.85
2022-09-11T01:48:23.005Z,18.39
2022-09-11T01:50:55.210Z,18.18
2022-09-11T01:53:35.337Z,17.97
2022-09-11T01:56:17.928Z,18.50
2022-09-11T01:58:59.031Z,18.26
2022-09-11T02:01:36.418Z,18.05
2022-09-11T02:04:12.268Z,18.24
2022-09-11T02:06:49.658Z,18.09
2022-09-11T02:09:29.374Z,18.12
2022-09-11T02:12:02.807Z,18.00
2022-09-11T02:14:41.004Z,18.20
2022-09-11T02:17:38.303Z,18.17
2022-09-11T02:20:14.604Z,18.21
2022-09-11T02:22:45.613Z,18.25
2022-09-11T02:25:17.610Z,18.17
2022-09-11T02:27:50.673Z,18.17
2022-09-11T02:30:22.214Z,18.29
2022-09-11T02:32:56.255Z,18.32
2022-09-11T02:35:30.660Z,18.42
2022-09-11T02:38:33.754Z,18.48
2022-09-11T02:41:14.295Z,18.16
2022-09-11T02:44:03.721Z,18.41
2022-09-11T02:46:51.003Z,18.21
2022-09-11T02:49:44.851Z,18.11
2022-09-11T02:52:58.387Z,18.04
2022-09-11T02:55:46.051Z,17.98
2022-09-11T02:58:29.545Z,18.10
2022-09-11T03:01:01.365Z,18.20
2022-09-11T03:03:45.798Z,18.25
2022-09-11T03:06:25.560Z,18.17
2022-09-11T03:08:55.814Z,18.29
2022-09-11T03:11:33.615Z,18.03
2022-09-11T03:14:06.417Z,17.84
2022-09-11T03:16:38.346Z,18.03
2022-09-11T03:19:10.914Z,17.84
2022-09-11T03:21:43.580Z,17.95
2022-09-11T03:24:14.582Z,17.98
2022-09-11T03:26:54.436Z,17.60
2022-09-11T03:29:22.395Z,17.87
2022-09-11T03:31:57.630Z,17.98
2022-09-11T03:34:29.954Z,18.28
2022-09-11T03:37:10.569Z,18.44
2022-09-11T03:39:44.460Z,18.45
2022-09-11T03:42:21.623Z,18.05
2022-09-11T03:44:54.506Z,18.22
2022-09-11T03:47:25.615Z,18.31
2022-09-11T03:50:05.342Z,18.29
2022-09-11T03:52:37.455Z,17.95
2022-09-11T03:55:08.527Z,18.27
2022-09-11T03:57:39.468Z,18.21
2022-09-11T04:00:15.085Z,18.02
2022-09-11T04:02:50.488Z,18.34
2022-09-11T04:05:26.352Z,18.38
2022-09-11T04:07:58.992Z,18.29
2022-09-11T04:10:40.092Z,18.22
2022-09-11T04:13:14.334Z,18.24
2022-09-11T04:15:43.412Z,18.43
2022-09-11T04:18:19.414Z,18.40
2022-09-11T04:20:51.735Z,18.39
2022-09-11T04:23:27.955Z,18.59
2022-09-11T04:26:19.721Z,18.44
2022-09-11T04:29:01.264Z,18.45
2022-09-11T04:31:32.137Z,18.59
2022-09-11T04:34:06.412Z,18.79
2022-09-11T04:36:39.736Z,18.95
2022-09-11T04:39:25.887Z,18.86
2022-09-11T04:42:01.551Z,18.40
2022-09-11T04:44:34.650Z,18.35
2022-09-11T04:47:11.335Z,18.70
2022-09-11T04:49:43.001Z,18.48
2022-09-11T04:52:17.059Z,18.53
2022-09-11T04:54:49.865Z,18.52
2022-09-11T04:57:29.867Z,18.44
2022-09-11T05:00:11.253Z,18.49
2022-09-11T05:02:51.041Z,18.36
2022-09-11T05:05:22.021Z,18.17
2022-09-11T05:07:57.222Z,18.28
2022-09-11T05:10:32.650Z,18.31
2022-09-11T05:13:08.746Z,18.36
2022-09-11T05:16:11.156Z,18.03
2022-09-11T05:18:44.844Z,18.01
2022-09-11T05:21:24.864Z,18.12
2022-09-11T05:24:34.397Z,18.10
2022-09-11T05:26:54.664Z,18.32
2022-09-11T05:29:33.996Z,18.54
2022-09-11T05:32:10.435Z,18.57
2022-09-11T05:34:59.554Z,18.45
2022-09-11T05:37:32.960Z,18.44
2022-09-11T05:40:12.795Z,18.34
2022-09-11T05:42:44.171Z,18.60
2022-09-11T05:45:23.331Z,18.60
2022-09-11T05:48:00.188Z,18.89
2022-09-11T05:50:38.309Z,18.75
2022-09-11T05:53:14.609Z,18.83
2022-09-11T05:55:48.046Z,19.05
2022-09-11T05:58:22.194Z,19.19
2022-09-11T06:01:04.063Z,19.17
2022-09-11T06:03:53.346Z,19.29
2022-09-11T06:06:48.363Z,19.36
2022-09-11T06:09:24.283Z,19.21
2022-09-11T06:11:59.939Z,18.85
2022-09-11T06:14:42.672Z,18.93
2022-09-11T06:17:15.259Z,18.87
2022-09-11T06:19:55.286Z,18.79
2022-09-11T06:22:31.488Z,18.72
2022-09-11T06:25:02.463Z,19.27
2022-09-11T06:27:38.207Z,19.27
2022-09-11T06:30:20.217Z,19.09
2022-09-11T06:33:05.858Z,19.55
2022-09-11T06:36:06.945Z,19.66
2022-09-11T06:38:39.403Z,19.96
2022-09-11T06:41:14.505Z,19.69
2022-09-11T06:44:00.554Z,20.01
2022-09-11T06:46:33.444Z,20.23
2022-09-11T06:49:06.609Z,20.46
2022-09-11T06:51:50.517Z,20.48
2022-09-11T06:54:27.783Z,20.39
2022-09-11T06:57:10.979Z,20.21
2022-09-11T06:59:47.976Z,20.55
2022-09-11T07:02:16.733Z,20.89
2022-09-11T07:05:11.020Z,20.98
2022-09-11T07:07:54.417Z,20.74
2022-09-11T07:10:33.964Z,20.89
2022-09-11T07:13:11.797Z,20.79
2022-09-11T07:15:42.859Z,21.09
2022-09-11T07:18:15.481Z,21.01
2022-09-11T07:20:45.152Z,20.96
2022-09-11T07:23:20.432Z,21.55
2022-09-11T07:25:50.158Z,21.44
2022-09-11T07:28:29.898Z,21.58
2022-09-11T07:31:18.708Z,21.73
2022-09-11T07:33:57.209Z,21.87
2022-09-11T07:36:32.453Z,22.10
2022-09-11T07:39:09.994Z,21.88
2022-09-11T07:41:55.843Z,22.14
2022-09-11T07:44:29.025Z,21.81
2022-09-11T07:47:07.727Z,21.89
2022-09-11T07:49:47.783Z,22.32
2022-09-11T07:52:26.522Z,22.53
2022-09-11T07:54:58.061Z,22.57
2022-09-11T07:57:32.774Z,22.52
2022-09-11T08:00:13.441Z,22.20
2022-09-11T08:02:52.081Z,22.19
2022-09-11T08:05:21.522Z,22.54
2022-09-11T08:07:55.366Z,22.87
2022-09-11T08:10:44.731Z,23.04
2022-09-11T08:13:35.665Z,23.01
2022-09-11T08:16:20.864Z,23.07
2022-09-11T08:18:57.939Z,23.04
2022-09-11T08:22:04.265Z,23.17
2022-09-11T08:24:45.443Z,23.13
2022-09-11T08:27:19.159Z,22.97
2022-09-11T08:30:05.348Z,23.06
2022-09-11T08:32:48.897Z,23.19
2022-09-11T08:38:38.305Z,22.94
2022-09-11T08:41:36.163Z,23.32
2022-09-11T08:44:22.679Z,23.34
2022-09-11T08:47:11.221Z,23.64
2022-09-11T08:49:49.690Z,23.85
2022-09-11T08:52:36.919Z,23.80
2022-09-11T08:55:19.520Z,23.89
2022-09-11T08:58:12.095Z,23.81
2022-09-11T09:01:11.407Z,24.10
2022-09-11T09:04:13.196Z,23.93
2022-09-11T09:07:06.581Z,23.61
2022-09-11T09:10:24.928Z,23.78
2022-09-11T09:13:41.618Z,23.93
2022-09-11T09:16:30.094Z,24.24
2022-09-11T09:19:19.814Z,24.44
2022-09-11T09:21:58.473Z,24.40
2022-09-11T09:24:40.757Z,24.33
2022-09-11T09:27:57.428Z,24.82
2022-09-11T09:30:36.674Z,24.98
2022-09-11T09:33:17.167Z,24.81
2022-09-11T09:35:53.161Z,25.04
2022-09-11T09:38:38.929Z,25.10
2022-09-11T09:42:01.638Z,25.21
2022-09-11T09:44:48.974Z,25.14
2022-09-11T09:47:34.095Z,25.15
2022-09-11T09:50:30.771Z,25.20
2022-09-11T09:53:14.866Z,25.17
2022-09-11T09:56:45.384Z,25.40
2022-09-11T09:59:06.119Z,25.15
2022-09-11T10:01:46.235Z,25.40
2022-09-11T10:04:28.108Z,25.51
2022-09-11T10:07:15.887Z,25.36
2022-09-11T10:09:56.010Z,25.18
2022-09-11T10:12:35.515Z,25.10
2022-09-11T10:15:21.388Z,25.06
2022-09-11T10:18:40.492Z,24.99
2022-09-11T10:21:33.916Z,25.14
2022-09-11T10:24:26.683Z,24.97
2022-09-11T10:27:08.168Z,24.63
2022-09-11T10:29:57.677Z,24.68
2022-09-11T10:32:39.544Z,24.11
2022-09-11T10:35:24.717Z,23.89
2022-09-11T10:38:18.678Z,24.05
2022-09-11T10:41:14.700Z,23.85
2022-09-11T10:44:04.034Z,23.84
2022-09-11T10:46:44.454Z,23.99
2022-09-11T10:49:25.806Z,24.12
2022-09-11T10:52:15.254Z,24.25
2022-09-11T10:55:00.078Z,24.65
2022-09-11T10:57:56.384Z,25.14
2022-09-11T11:00:45.243Z,25.30
2022-09-11T11:03:24.524Z,25.14
2022-09-11T11:07:01.975Z,25.60
2022-09-11T11:10:00.453Z,25.75
2022-09-11T11:12:40.675Z,24.99
2022-09-11T11:15:31.277Z,25.23
2022-09-11T11:18:23.277Z,25.64
2022-09-11T11:21:15.639Z,25.74
2022-09-11T11:23:56.514Z,26.16
2022-09-11T11:26:37.105Z,26.34
2022-09-11T11:29:23.065Z,26.15
2022-09-11T11:32:32.259Z,26.23
2022-09-11T11:35:26.806Z,26.26
2022-09-11T11:38:27.312Z,26.08
2022-09-11T11:41:03.396Z,26.19
2022-09-11T11:43:39.251Z,26.63
2022-09-11T11:46:28.945Z,26.06
2022-09-11T11:49:09.221Z,26.14
2022-09-11T11:52:05.955Z,25.55
2022-09-11T11:55:04.400Z,25.78
2022-09-11T11:57:40.111Z,25.80
2022-09-11T12:00:29.332Z,25.08
2022-09-11T12:03:09.031Z,25.23
2022-09-11T12:06:02.248Z,25.49
2022-09-11T12:08:44.189Z,25.75
2022-09-11T12:11:17.814Z,25.80
2022-09-11T12:13:50.801Z,26.03
2022-09-11T12:16:30.630Z,25.92
2022-09-11T12:19:22.629Z,25.60
2022-09-11T12:21:53.770Z,25.36
2022-09-11T12:24:52.729Z,25.08
2022-09-11T12:27:38.265Z,24.78
2022-09-11T12:30:27.216Z,24.63
2022-09-11T12:33:03.313Z,24.47
2022-09-11T12:35:54.460Z,24.04
2022-09-11T12:38:42.343Z,23.72
2022-09-11T12:41:35.116Z,24.06
2022-09-11T12:44:06.867Z,24.06
2022-09-11T12:46:58.522Z,23.97
2022-09-11T12:49:31.800Z,24.10
2022-09-11T12:52:20.208Z,24.19
2022-09-11T12:54:55.569Z,24.04
2022-09-11T12:57:35.401Z,24.16
2022-09-11T13:00:13.795Z,24.26
2022-09-11T13:02:44.690Z,23.99
2022-09-11T13:05:28.600Z,24.12
2022-09-11T13:08:05.570Z,23.75
2022-09-11T13:10:39.596Z,23.10
2022-09-11T13:13:36.285Z,23.16
2022-09-11T13:16:19.768Z,23.08
2022-09-11T13:18:50.880Z,22.79
2022-09-11T13:21:24.427Z,22.89
2022-09-11T13:23:54.740Z,22.89
2022-09-11T13:26:32.222Z,22.66
2022-09-11T13:29:03.769Z,23.13
2022-09-11T13:31:42.491Z,23.16
2022-09-11T13:34:26.354Z,23.58
2022-09-11T13:36:58.552Z,23.58
2022-09-11T13:39:32.173Z,23.61
2022-09-11T13:42:05.653Z,23.66
2022-09-11T13:44:47.341Z,23.89
2022-09-11T13:47:30.633Z,24.06
2022-09-11T13:50:06.146Z,23.38
2022-09-11T13:52:40.281Z,24.12
2022-09-11T13:55:15.244Z,23.82
2022-09-11T13:58:27.715Z,24.20
2022-09-11T14:00:59.613Z,24.45
2022-09-11T14:03:30.723Z,24.72
2022-09-11T14:06:08.948Z,24.48
2022-09-11T14:08:47.424Z,24.33
2022-09-11T14:11:29.387Z,24.51
2022-09-11T14:14:29.380Z,24.49
2022-09-11T14:17:01.566Z,24.98
2022-09-11T14:19:38.587Z,25.34
2022-09-11T14:22:36.224Z,25.40
2022-09-11T14:25:10.029Z,25.27
2022-09-11T14:27:45.148Z,25.23
2022-09-11T14:30:34.804Z,25.15
2022-09-11T14:33:23.833Z,24.92
2022-09-11T14:36:10.958Z,25.42
2022-09-11T14:38:43.932Z,25.28
2022-09-11T14:41:17.073Z,25.80
2022-09-11T14:43:53.601Z,25.90
2022-09-11T14:46:24.374Z,26.01
2022-09-11T14:48:52.564Z,25.96
2022-09-11T14:51:31.269Z,26.13
2022-09-11T14:54:04.316Z,25.71
2022-09-11T14:56:34.496Z,26.23
2022-09-11T14:59:17.225Z,26.48
2022-09-11T15:01:57.620Z,26.43
2022-09-11T15:04:29.857Z,26.42
2022-09-11T15:07:03.328Z,26.23
2022-09-11T15:09:37.185Z,26.28
2022-09-11T15:12:22.665Z,26.62
2022-09-11T15:15:05.324Z,26.81
2022-09-11T15:17:37.405Z,26.81
2022-09-11T15:20:19.206Z,26.75
2022-09-11T15:22:53.305Z,26.58
2022-09-11T15:25:29.114Z,26.67
2022-09-11T15:28:03.308Z,26.52
2022-09-11T15:30:39.080Z,26.36
2022-09-11T15:33:15.791Z,26.14
2022-09-11T15:35:53.561Z,26.29
2022-09-11T15:38:24.322Z,26.30
2022-09-11T15:40:58.228Z,26.19
2022-09-11T15:43:40.294Z,26.03
2022-09-11T15:46:15.596Z,25.86
2022-09-11T15:48:50.152Z,25.74
2022-09-11T15:51:26.917Z,25.96
2022-09-11T15:54:01.295Z,25.79
2022-09-11T15:56:30.085Z,25.68
2022-09-11T15:59:04.855Z,25.49
2022-09-11T16:01:37.597Z,25.24
2022-09-11T16:04:09.538Z,25.24
2022-09-11T16:06:42.284Z,24.91
2022-09-11T16:09:23.013Z,24.71
2022-09-11T16:11:57.127Z,24.79
2022-09-11T16:14:32.934Z,24.75
2022-09-11T16:17:07.821Z,24.71
2022-09-11T16:19:42.977Z,24.70
2022-09-11T16:22:11.672Z,24.52
2022-09-11T16:24:44.279Z,24.64
2022-09-11T16:27:14.216Z,24.05
2022-09-11T16:32:38.466Z,24.28
2022-09-11T16:35:13.471Z,24.20
2022-09-11T16:37:42.082Z,24.24
2022-09-11T16:40:12.744Z,24.25
2022-09-11T16:42:45.921Z,24.05
2022-09-11T16:45:16.180Z,24.00
2022-09-11T16:47:48.124Z,23.55
2022-09-11T16:50:17.580Z,23.83
2022-09-11T16:52:51.217Z,23.53
2022-09-11T16:55:23.191Z,23.53
2022-09-11T16:57:55.322Z,23.64
2022-09-11T17:00:26.085Z,23.57
2022-09-11T17:02:53.799Z,23.52
2022-09-11T17:05:21.524Z,23.55
2022-09-11T17:07:52.771Z,23.27
2022-09-11T17:10:20.871Z,23.37
2022-09-11T17:12:52.238Z,23.07
2022-09-11T17:15:20.529Z,23.06
2022-09-11T17:17:50.529Z,23.39
2022-09-11T17:20:21.737Z,22.97
2022-09-11T17:22:53.749Z,22.74
2022-09-11T17:25:26.051Z,23.15
2022-09-11T17:27:56.619Z,22.90
2022-09-11T17:30:27.967Z,22.62
2022-09-11T17:32:57.416Z,23.05
2022-09-11T17:35:27.097Z,22.91
2022-09-11T17:37:55.735Z,22.88
2022-09-11T17:40:23.919Z,22.90
2022-09-11T17:42:55.902Z,23.06
2022-09-11T17:45:25.393Z,22.92
2022-09-11T17:47:53.895Z,22.49
2022-09-11T17:50:21.827Z,22.58
2022-09-11T17:52:52.678Z,22.72
2022-09-11T17:55:23.013Z,22.49
2022-09-11T17:57:54.826Z,22.38
2022-09-11T18:00:23.752Z,22.57
2022-09-11T18:02:54.392Z,22.10
2022-09-11T18:05:23.146Z,22.20
2022-09-11T18:07:53.852Z,22.29
2022-09-11T18:10:24.479Z,22.16
2022-09-11T18:12:58.617Z,22.14
2022-09-11T18:15:29.724Z,22.12
2022-09-11T18:17:57.960Z,22.02
2022-09-11T18:20:28.102Z,21.95
2022-09-11T18:22:56.639Z,21.83
2022-09-11T18:25:26.508Z,21.97
2022-09-11T18:27:56.188Z,22.07
2022-09-11T18:30:24.397Z,21.98
2022-09-11T18:32:54.365Z,21.93
2022-09-11T18:35:23.114Z,21.95
2022-09-11T18:37:54.572Z,21.94
2022-09-11T18:40:23.584Z,22.10
2022-09-11T18:42:53.046Z,22.12
2022-09-11T18:45:22.055Z,21.97
2022-09-11T18:47:54.913Z,21.73
2022-09-11T18:50:25.857Z,21.87
2022-09-11T18:52:57.091Z,21.70
2022-09-11T18:55:29.936Z,21.82
2022-09-11T18:58:04.477Z,21.82
2022-09-11T19:00:33.083Z,21.77
2022-09-11T19:03:02.881Z,21.92
2022-09-11T19:05:31.463Z,21.45
2022-09-11T19:08:01.610Z,21.65
2022-09-11T19:10:30.223Z,21.60
2022-09-11T19:13:01.334Z,21.32
2022-09-11T19:15:34.144Z,21.39
2022-09-11T19:18:03.145Z,21.48
2022-09-11T19:20:32.171Z,21.54
2022-09-11T19:23:02.760Z,21.43
2022-09-11T19:25:33.649Z,21.41
2022-09-11T19:28:02.664Z,21.41
2022-09-11T19:30:40.082Z,21.39
2022-09-11T19:33:13.414Z,21.33
2022-09-11T19:35:42.194Z,21.02
2022-09-11T19:38:10.169Z,21.03
2022-09-11T19:40:38.554Z,21.00
2022-09-11T19:43:07.448Z,21.06
2022-09-11T19:45:35.561Z,20.92
2022-09-11T19:48:04.540Z,20.90
2022-09-11T19:50:37.371Z,20.75
2022-09-11T19:53:06.276Z,20.56
2022-09-11T19:55:35.608Z,20.66
2022-09-11T19:58:04.510Z,20.43
2022-09-11T20:00:36.107Z,20.34
2022-09-11T20:03:06.413Z,20.29
2022-09-11T20:05:40.797Z,20.32
2022-09-11T20:08:14.022Z,20.25
2022-09-11T20:10:46.970Z,19.94
2022-09-11T20:13:18.992Z,19.98
2022-09-11T20:15:47.690Z,20.33
2022-09-11T20:18:20.602Z,20.29
2022-09-11T20:20:55.351Z,20.14
2022-09-11T20:23:27.469Z,20.15
2022-09-11T20:26:21.555Z,20.38
2022-09-11T20:29:03.274Z,20.57
2022-09-11T20:31:42.538Z,20.26
2022-09-11T20:34:23.327Z,20.35
2022-09-11T20:36:54.937Z,20.18
2022-09-11T20:39:28.520Z,20.30
2022-09-11T20:42:02.430Z,20.26
2022-09-11T20:44:37.001Z,20.11
2022-09-11T20:47:13.959Z,20.15
2022-09-11T20:49:48.288Z,20.00
2022-09-11T20:52:20.230Z,19.91
2022-09-11T20:54:51.737Z,20.19
2022-09-11T20:57:22.678Z,19.97
2022-09-11T20:59:51.788Z,20.13
2022-09-11T21:02:20.818Z,20.00
2022-09-11T21:04:49.233Z,20.13
2022-09-11T21:07:17.608Z,19.92
2022-09-11T21:09:46.408Z,20.12
2022-09-11T21:12:14.472Z,20.13
2022-09-11T21:14:45.958Z,19.86
2022-09-11T21:17:13.585Z,20.01
2022-09-11T21:19:43.078Z,19.82
2022-09-11T21:22:16.094Z,19.88
2022-09-11T21:24:45.884Z,19.48
2022-09-11T21:27:15.429Z,19.81
2022-09-11T21:29:43.185Z,19.81
2022-09-11T21:32:13.387Z,20.03
2022-09-11T21:34:43.257Z,19.67
2022-09-11T21:37:13.990Z,19.78
2022-09-11T21:39:44.601Z,19.93
2022-09-11T21:42:15.149Z,19.80
2022-09-11T21:44:45.284Z,19.67
2022-09-11T21:47:14.093Z,19.69
2022-09-11T21:49:45.950Z,19.63
2022-09-11T21:52:16.548Z,19.30
2022-09-11T21:54:46.859Z,19.48
2022-09-11T21:57:18.092Z,19.14
2022-09-11T21:59:49.089Z,19.39
2022-09-11T22:02:24.372Z,19.06
2022-09-11T22:04:56.630Z,19.11
2022-09-11T22:07:32.453Z,19.02
2022-09-11T22:10:07.421Z,18.89
2022-09-11T22:12:48.627Z,18.32
2022-09-11T22:15:28.135Z,18.61
2022-09-11T22:18:11.852Z,18.92
2022-09-11T22:20:44.763Z,18.95
2022-09-11T22:23:23.264Z,19.14
2022-09-11T22:26:24.694Z,18.85
2022-09-11T22:28:59.729Z,18.86
2022-09-11T22:31:33.509Z,18.68
2022-09-11T22:34:16.595Z,18.09
2022-09-11T22:36:54.245Z,18.81
2022-09-11T22:39:27.420Z,19.07
2022-09-11T22:42:08.504Z,19.00
2022-09-11T22:44:45.175Z,18.79
2022-09-11T22:47:23.504Z,18.98
2022-09-11T22:50:00.777Z,18.69
2022-09-11T22:52:40.258Z,18.81
2022-09-11T22:55:15.557Z,18.82
2022-09-11T22:57:57.675Z,18.91
2022-09-11T23:00:42.525Z,18.81
2022-09-11T23:03:20.676Z,18.93
2022-09-11T23:06:23.620Z,18.99
2022-09-11T23:09:01.172Z,18.98
2022-09-11T23:11:40.176Z,18.93
2022-09-11T23:14:29.343Z,18.89
2022-09-11T23:17:10.846Z,18.75
2022-09-11T23:19:49.671Z,19.00
2022-09-11T23:22:28.047Z,18.48
2022-09-11T23:25:14.313Z,18.65
2022-09-11T23:28:09.311Z,18.79
2022-09-11T23:30:42.550Z,19.00
2022-09-11T23:33:17.701Z,18.96
2022-09-11T23:35:56.704Z,19.07
2022-09-11T23:38:30.065Z,18.90
2022-09-11T23:41:05.455Z,18.62
2022-09-11T23:43:42.770Z,18.65
2022-09-11T23:46:24.224Z,18.88
2022-09-11T23:49:08.761Z,18.88
2022-09-11T23:51:42.444Z,18.96
2022-09-11T23:54:19.150Z,18.59
2022-09-11T23:56:54.715Z,18.53
2022-09-11T23:59:27.941Z,18.57
